Butlerville, Ohio
Current Conditions -  °F | °C
As of 9:25 AM on Saturday 20 Dec 2014 (Local Time) from KILN Reporting Station
Haze Haze  
Wind Chill: 28°   Ceiling: 1400
Heat Index: 28°   Visibility: 5mi
Dew Point: 23°   Wind: 3mph
Humidity: 81%   Direction: 80°E
Pressure: 30.28"   Gusts: NA
Location:  39.2751°N, 84.0815°W
Report Text: KILN 201425Z AUTO 08003KT 5SM HZ OVC014 M02/M05 A3028 RMK AO2 T10221050
Loading
Personal Weather Stations






























Interactive Weather Map New forecast layout! Learn more

10-Day Weather Forecast

Advertisements
Track Severe Weather on mobile